Time;durP1;ratioP1;P1;durP2;ratioP2;P2;SDS_P1;SDS_P2;PMS_P1;PMS_P2;Temp;Humidity;BMP_temperature;BMP_pressure;BME280_temperature;BME280_humidity;BME280_pressure;Samples;Min_cycle;Max_cycle;Signal;HPM_P1;HPM_P2
2021/01/17 00:00:16;;;;;;;5.53;3.97;;;0.70;99.90;;;;;;4980511;28;20333;-93
2021/01/17 00:02:50;;;;;;;3.30;2.60;;;0.70;99.90;;;;;;4980939;28;20215;-93
2021/01/17 00:05:21;;;;;;;5.20;3.23;;;0.70;99.90;;;;;;4981150;28;20301;-92
2021/01/17 00:07:47;;;;;;;6.63;5.13;;;0.70;99.90;;;;;;4981858;28;20200;-93
2021/01/17 00:10:16;;;;;;;5.17;4.33;;;0.70;99.90;;;;;;4965228;28;20234;-93
2021/01/17 00:12:42;;;;;;;3.80;3.60;;;0.70;99.90;;;;;;4965092;28;20346;-91
2021/01/17 00:15:10;;;;;;;4.30;3.67;;;0.70;99.90;;;;;;4941625;28;20270;-93
2021/01/17 00:17:37;;;;;;;5.43;3.97;;;0.70;99.90;;;;;;4948546;28;20227;-94
2021/01/17 00:20:07;;;;;;;3.47;3.00;;;0.70;99.90;;;;;;4981155;28;20230;-93
2021/01/17 00:22:34;;;;;;;11.53;6.67;;;0.70;99.90;;;;;;4980911;28;20188;-94
2021/01/17 00:24:59;;;;;;;3.80;2.83;;;0.70;99.90;;;;;;4948373;28;20219;-93
2021/01/17 00:27:25;;;;;;;6.63;5.50;;;0.70;99.90;;;;;;4947978;28;20218;-93
2021/01/17 00:29:51;;;;;;;13.53;5.63;;;0.70;99.90;;;;;;4963910;28;20697;-92
2021/01/17 00:32:16;;;;;;;4.13;2.80;;;0.70;99.90;;;;;;4948288;28;20219;-94
2021/01/17 00:34:44;;;;;;;10.87;5.43;;;0.70;99.90;;;;;;4965848;28;20671;-92
2021/01/17 00:37:14;;;;;;;7.63;5.27;;;0.70;99.90;;;;;;4964858;28;20232;-94
2021/01/17 00:39:40;;;;;;;4.63;4.23;;;0.70;99.90;;;;;;4981129;28;20322;-92
2021/01/17 00:42:14;;;;;;;15.63;4.77;;;0.70;99.90;;;;;;4964097;28;20224;-93
2021/01/17 00:44:42;;;;;;;3.73;3.43;;;0.70;99.90;;;;;;4980301;28;20232;-91
2021/01/17 00:47:11;;;;;;;7.60;5.17;;;0.70;99.90;;;;;;4963737;28;20232;-92
2021/01/17 00:49:37;;;;;;;5.60;5.13;;;0.70;99.90;;;;;;4965987;28;20191;-93
2021/01/17 00:52:03;;;;;;;8.83;6.37;;;0.70;99.90;;;;;;4963537;28;20211;-93
2021/01/17 00:54:28;;;;;;;7.17;6.23;;;0.70;99.90;;;;;;4965202;28;20222;-92
2021/01/17 00:56:54;;;;;;;3.47;3.17;;;0.70;99.90;;;;;;4951159;28;20220;-92
2021/01/17 00:59:20;;;;;;;4.83;3.90;;;0.80;99.90;;;;;;4966761;28;20236;-93
2021/01/17 01:01:47;;;;;;;4.70;4.40;;;0.70;99.90;;;;;;4985079;28;20593;-92
2021/01/17 01:04:15;;;;;;;9.17;6.90;;;0.80;99.90;;;;;;4951062;28;20220;-93
2021/01/17 01:06:41;;;;;;;3.87;3.60;;;0.70;99.90;;;;;;4985186;28;20254;-93
2021/01/17 01:09:08;;;;;;;8.03;4.63;;;0.70;99.90;;;;;;4967292;28;21151;-93
2021/01/17 01:11:34;;;;;;;6.20;5.60;;;0.80;99.90;;;;;;4968022;28;20216;-93
2021/01/17 01:14:00;;;;;;;3.97;3.67;;;0.80;99.90;;;;;;4951110;28;20195;-94
2021/01/17 01:16:26;;;;;;;7.47;6.27;;;0.80;99.90;;;;;;4968139;28;20192;-92
2021/01/17 01:18:52;;;;;;;4.50;4.10;;;0.80;99.90;;;;;;4964972;28;20236;-94
2021/01/17 01:21:25;;;;;;;8.47;5.63;;;0.80;99.90;;;;;;4948280;28;21074;-93
2021/01/17 01:23:51;;;;;;;7.40;3.63;;;0.80;99.90;;;;;;4963614;28;20262;-94
2021/01/17 01:26:20;;;;;;;6.83;5.13;;;0.80;99.90;;;;;;4967040;28;20293;-93
2021/01/17 01:28:47;;;;;;;3.93;2.47;;;0.80;99.90;;;;;;4968599;28;20200;-93
2021/01/17 01:31:20;;;;;;;6.63;5.40;;;0.80;99.90;;;;;;4950816;28;20242;-93
2021/01/17 01:33:47;;;;;;;4.87;3.00;;;0.80;99.90;;;;;;4947751;28;20251;-91
2021/01/17 01:36:26;;;;;;;8.73;5.47;;;0.80;99.90;;;;;;4948860;28;20224;-94
2021/01/17 01:38:53;;;;;;;7.60;5.03;;;0.80;99.90;;;;;;4967948;28;20227;-93
2021/01/17 01:41:20;;;;;;;5.47;5.17;;;0.80;99.90;;;;;;4966199;28;20216;-93
2021/01/17 01:43:46;;;;;;;4.77;4.37;;;0.80;99.90;;;;;;4952120;28;20200;-93
2021/01/17 01:46:18;;;;;;;5.90;4.33;;;0.80;99.90;;;;;;4966246;28;20331;-94
2021/01/17 01:48:45;;;;;;;5.23;3.80;;;0.80;99.90;;;;;;4983359;28;20236;-92
2021/01/17 01:51:16;;;;;;;8.10;3.10;;;0.80;99.90;;;;;;4966846;28;20691;-93
2021/01/17 01:53:42;;;;;;;7.87;5.80;;;0.80;99.90;;;;;;4982422;28;20220;-94
2021/01/17 01:56:08;;;;;;;8.73;4.20;;;0.80;99.90;;;;;;4950094;28;20202;-94
2021/01/17 01:58:37;;;;;;;7.83;5.73;;;0.80;99.90;;;;;;4951253;28;20219;-94
2021/01/17 02:01:04;;;;;;;5.53;4.10;;;0.80;99.90;;;;;;4965980;28;20286;-93
2021/01/17 02:03:29;;;;;;;3.37;2.90;;;0.90;99.90;;;;;;4965719;28;20283;-94
2021/01/17 02:05:55;;;;;;;4.33;3.93;;;0.80;99.90;;;;;;4965538;28;20228;-94
2021/01/17 02:08:55;;;;;;;7.30;5.37;;;0.80;99.90;;;;;;4966240;28;21320;-94
2021/01/17 02:11:23;;;;;;;3.30;3.00;;;0.90;99.90;;;;;;4966708;28;20306;-93
2021/01/17 02:14:00;;;;;;;4.47;4.00;;;0.80;99.90;;;;;;4984637;28;20708;-91
2021/01/17 02:16:27;;;;;;;3.47;3.13;;;0.90;99.90;;;;;;4984158;28;20223;-94
2021/01/17 02:18:54;;;;;;;4.10;3.70;;;0.90;99.90;;;;;;4966325;28;20340;-94
2021/01/17 02:21:21;;;;;;;6.10;3.37;;;0.90;99.90;;;;;;4982046;28;20219;-93
2021/01/17 02:23:55;;;;;;;3.70;3.30;;;0.90;99.90;;;;;;4965383;28;20636;-93
2021/01/17 02:26:22;;;;;;;2.97;2.47;;;0.80;99.90;;;;;;4966636;28;20249;-93
2021/01/17 02:28:49;;;;;;;6.43;5.93;;;0.80;99.90;;;;;;4967845;28;20208;-94
2021/01/17 02:31:18;;;;;;;3.10;2.87;;;0.90;99.90;;;;;;4948994;28;20228;-93
2021/01/17 02:33:46;;;;;;;5.93;4.93;;;0.90;99.90;;;;;;4980848;28;20959;-94
2021/01/17 02:36:18;;;;;;;3.47;2.13;;;0.90;99.90;;;;;;4962929;28;20216;-92
2021/01/17 02:38:54;;;;;;;4.50;2.27;;;0.90;99.90;;;;;;4965201;28;21235;-93
2021/01/17 02:42:02;;;;;;;5.07;3.93;;;0.90;99.90;;;;;;4982595;28;20906;-92
2021/01/17 02:44:33;;;;;;;7.57;3.80;;;0.90;99.90;;;;;;4941989;28;20211;-93
2021/01/17 02:47:00;;;;;;;6.13;3.57;;;0.90;99.90;;;;;;4982074;28;20219;-93
2021/01/17 02:49:26;;;;;;;4.20;3.00;;;0.90;99.90;;;;;;4984026;28;20282;-93
2021/01/17 02:51:52;;;;;;;4.23;3.83;;;0.90;99.90;;;;;;4949270;28;20696;-93
2021/01/17 02:54:25;;;;;;;5.87;3.87;;;0.90;99.90;;;;;;4965722;28;20220;-92
2021/01/17 02:57:06;;;;;;;2.87;2.60;;;0.80;99.90;;;;;;4982995;28;20309;-92
2021/01/17 02:59:47;;;;;;;8.10;3.50;;;0.90;99.90;;;;;;4965686;28;20235;-92
2021/01/17 03:02:14;;;;;;;3.90;3.23;;;0.90;99.90;;;;;;4965039;28;20192;-93
2021/01/17 03:04:47;;;;;;;5.27;3.50;;;0.90;99.90;;;;;;4966413;28;20184;-91
2021/01/17 03:07:14;;;;;;;9.40;4.37;;;0.90;99.90;;;;;;4981901;28;20271;-90
2021/01/17 03:09:44;;;;;;;4.17;3.47;;;0.90;99.90;;;;;;4948723;28;20212;-92
2021/01/17 03:12:10;;;;;;;5.50;3.33;;;0.90;99.90;;;;;;4965196;28;20637;-91
2021/01/17 03:14:38;;;;;;;3.03;1.93;;;0.90;99.90;;;;;;4982033;28;20219;-92
2021/01/17 03:17:05;;;;;;;5.70;4.07;;;0.90;99.90;;;;;;4964873;28;20200;-91
2021/01/17 03:19:31;;;;;;;3.30;3.00;;;0.90;99.90;;;;;;4951371;28;20243;-92
2021/01/17 03:21:57;;;;;;;5.10;4.70;;;0.90;99.90;;;;;;4980653;28;20219;-92
2021/01/17 03:24:22;;;;;;;4.43;4.17;;;0.90;99.90;;;;;;4981637;28;20220;-92
2021/01/17 03:26:48;;;;;;;2.80;2.07;;;0.90;99.90;;;;;;4981095;28;20681;-91
2021/01/17 03:29:14;;;;;;;6.93;4.53;;;0.90;99.90;;;;;;4948869;28;21050;-91
2021/01/17 03:31:40;;;;;;;4.20;2.17;;;0.90;99.90;;;;;;4950071;28;20657;-92
2021/01/17 03:34:05;;;;;;;4.97;3.97;;;0.90;99.90;;;;;;4964628;28;20223;-92
2021/01/17 03:36:31;;;;;;;2.27;2.17;;;0.90;99.90;;;;;;4964673;28;20351;-91
2021/01/17 03:38:57;;;;;;;4.40;3.67;;;0.90;99.90;;;;;;4948227;28;20233;-92
2021/01/17 03:41:24;;;;;;;9.10;7.33;;;0.90;99.90;;;;;;4981734;28;21242;-90
2021/01/17 03:43:49;;;;;;;4.37;4.00;;;0.90;99.90;;;;;;4965524;28;20267;-92
2021/01/17 03:46:15;;;;;;;4.50;4.20;;;0.90;99.90;;;;;;4963959;28;20220;-91
2021/01/17 03:48:41;;;;;;;5.70;2.80;;;1.00;99.90;;;;;;4948920;28;20242;-91
2021/01/17 03:51:07;;;;;;;3.33;3.10;;;0.90;99.90;;;;;;4964356;28;20224;-92
2021/01/17 03:53:33;;;;;;;7.40;4.00;;;0.90;99.90;;;;;;4982660;28;20231;-92
2021/01/17 03:55:59;;;;;;;5.13;3.87;;;0.90;99.90;;;;;;4948483;28;20238;-91
2021/01/17 03:58:24;;;;;;;5.27;3.63;;;0.90;99.90;;;;;;4949606;28;20203;-92
2021/01/17 04:00:50;;;;;;;3.13;2.87;;;0.90;99.90;;;;;;4948723;28;20242;-92
2021/01/17 04:03:16;;;;;;;3.23;3.03;;;1.00;99.90;;;;;;4964433;28;20227;-90
2021/01/17 04:05:42;;;;;;;2.83;2.63;;;1.00;99.90;;;;;;4963616;28;21208;-91
2021/01/17 04:08:08;;;;;;;5.90;4.13;;;1.00;99.90;;;;;;4962719;28;20242;-93
2021/01/17 04:10:33;;;;;;;3.47;3.07;;;1.00;99.90;;;;;;4964709;28;20188;-93
2021/01/17 04:12:59;;;;;;;3.73;3.37;;;0.90;99.90;;;;;;4948755;28;20220;-93
2021/01/17 04:15:25;;;;;;;4.33;2.97;;;1.00;99.90;;;;;;4964868;28;20220;-93
2021/01/17 04:17:51;;;;;;;2.43;2.23;;;1.00;99.90;;;;;;4964759;28;20212;-92
2021/01/17 04:20:17;;;;;;;6.27;3.57;;;1.00;99.90;;;;;;4964078;28;20257;-93
2021/01/17 04:22:42;;;;;;;4.20;3.03;;;1.00;99.90;;;;;;4961563;28;20184;-93
2021/01/17 04:25:09;;;;;;;4.70;4.37;;;1.00;99.90;;;;;;4964471;28;21103;-92
2021/01/17 04:27:35;;;;;;;3.70;2.97;;;1.00;99.90;;;;;;4963146;28;20226;-93
2021/01/17 04:30:01;;;;;;;5.57;3.03;;;1.00;99.90;;;;;;4966153;28;20224;-93
2021/01/17 04:32:27;;;;;;;6.17;3.40;;;1.00;99.90;;;;;;4966630;28;20227;-93
2021/01/17 04:34:53;;;;;;;1.47;1.37;;;1.00;99.90;;;;;;4968694;28;20633;-93
2021/01/17 04:37:22;;;;;;;2.20;2.00;;;1.00;99.90;;;;;;4950302;28;20228;-94
2021/01/17 04:39:49;;;;;;;3.47;2.80;;;1.10;99.90;;;;;;4966320;28;20228;-94
2021/01/17 04:42:19;;;;;;;3.10;2.83;;;1.00;99.90;;;;;;4950578;28;20758;-94
2021/01/17 04:44:51;;;;;;;2.33;2.10;;;1.10;99.90;;;;;;4984484;28;20235;-94
2021/01/17 04:47:19;;;;;;;3.23;2.90;;;1.10;99.90;;;;;;4984723;28;20235;-94
2021/01/17 04:49:51;;;;;;;3.60;3.30;;;1.10;99.90;;;;;;4968929;28;20188;-94
2021/01/17 04:52:20;;;;;;;3.80;3.27;;;1.10;99.90;;;;;;4950787;28;20216;-92
2021/01/17 04:54:47;;;;;;;4.13;3.80;;;1.10;99.90;;;;;;4966753;28;20227;-93
2021/01/17 04:57:45;;;;;;;5.47;2.73;;;1.10;99.90;;;;;;4982986;28;20226;-93
2021/01/17 05:00:11;;;;;;;6.20;4.20;;;1.00;99.90;;;;;;4983765;28;20227;-94
2021/01/17 05:03:00;;;;;;;6.03;4.43;;;1.10;99.90;;;;;;4966865;28;20211;-93
2021/01/17 05:05:25;;;;;;;4.10;3.33;;;1.10;99.90;;;;;;4952982;28;20238;-93
2021/01/17 05:08:19;;;;;;;3.50;3.27;;;1.10;99.90;;;;;;4986139;28;20183;-94
2021/01/17 05:10:47;;;;;;;5.63;4.20;;;1.10;99.90;;;;;;4968064;28;20279;-94
2021/01/17 05:13:17;;;;;;;4.97;3.07;;;1.10;99.90;;;;;;4982638;28;20282;-94
2021/01/17 05:15:44;;;;;;;2.63;2.40;;;1.10;99.90;;;;;;4966861;28;20223;-94
2021/01/17 05:18:11;;;;;;;5.20;2.17;;;1.10;99.90;;;;;;4983958;28;20228;-94
2021/01/17 05:20:37;;;;;;;5.20;4.70;;;1.10;99.90;;;;;;4967319;28;20366;-95
2021/01/17 05:23:10;;;;;;;5.03;3.70;;;1.10;99.90;;;;;;4983343;28;20218;-94
2021/01/17 05:25:35;;;;;;;3.40;2.23;;;1.10;99.90;;;;;;4984384;28;20275;-93
2021/01/17 05:28:01;;;;;;;7.97;5.63;;;1.10;99.90;;;;;;4950003;28;20226;-91
2021/01/17 05:30:27;;;;;;;3.57;3.13;;;1.10;99.90;;;;;;4967023;28;20708;-93
2021/01/17 05:32:54;;;;;;;4.77;2.97;;;1.10;99.90;;;;;;4950604;28;21431;-93
2021/01/17 05:35:23;;;;;;;4.00;2.87;;;1.10;99.90;;;;;;4966743;28;20216;-93
2021/01/17 05:37:54;;;;;;;4.63;4.03;;;1.10;99.90;;;;;;4984946;28;20300;-93
2021/01/17 05:40:21;;;;;;;4.27;3.00;;;1.10;99.90;;;;;;4982649;28;20640;-93
2021/01/17 05:42:48;;;;;;;3.77;3.40;;;1.10;99.90;;;;;;4964285;28;20227;-93
2021/01/17 05:45:18;;;;;;;3.60;3.33;;;1.10;99.90;;;;;;4982574;28;20359;-93
2021/01/17 05:47:59;;;;;;;1.40;1.30;;;1.10;99.90;;;;;;4965976;28;20223;-93
2021/01/17 05:50:27;;;;;;;4.70;2.30;;;1.20;99.90;;;;;;4983290;28;20602;-92
2021/01/17 05:53:01;;;;;;;4.13;2.93;;;1.10;99.90;;;;;;4983804;28;20208;-94
2021/01/17 05:55:41;;;;;;;4.07;3.57;;;1.20;99.90;;;;;;4967275;28;20267;-91
2021/01/17 05:58:26;;;;;;;4.33;3.93;;;1.20;99.90;;;;;;4950301;28;20270;-92
2021/01/17 06:00:57;;;;;;;10.23;3.47;;;1.20;99.90;;;;;;4982889;28;20231;-91
2021/01/17 06:03:31;;;;;;;4.43;3.23;;;1.20;99.90;;;;;;4982307;28;20312;-92
2021/01/17 06:06:05;;;;;;;4.27;3.97;;;1.20;99.90;;;;;;4966778;28;20670;-93
2021/01/17 06:08:32;;;;;;;5.40;3.57;;;1.20;99.90;;;;;;4983614;28;20302;-92
2021/01/17 06:11:11;;;;;;;3.77;3.47;;;1.20;99.90;;;;;;4966299;28;20196;-92
2021/01/17 06:13:39;;;;;;;4.20;2.37;;;1.20;99.90;;;;;;4950523;28;20187;-92
2021/01/17 06:16:39;;;;;;;4.47;3.73;;;1.30;99.90;;;;;;4965595;28;20215;-92
2021/01/17 06:19:06;;;;;;;8.63;4.23;;;1.20;99.90;;;;;;4982566;28;20223;-92
2021/01/17 06:21:33;;;;;;;4.03;2.93;;;1.20;99.90;;;;;;4930183;28;20290;-92
2021/01/17 06:24:04;;;;;;;7.27;3.47;;;1.30;99.90;;;;;;4928788;28;20839;-91
2021/01/17 06:26:37;;;;;;;4.43;2.87;;;1.30;99.90;;;;;;4961579;28;20319;-92
2021/01/17 06:29:14;;;;;;;5.00;4.43;;;1.30;99.90;;;;;;4961322;28;20198;-93
2021/01/17 06:31:40;;;;;;;4.77;4.37;;;1.30;99.90;;;;;;4982181;28;20180;-92
2021/01/17 06:34:14;;;;;;;4.27;2.93;;;1.40;99.90;;;;;;4981711;28;20703;-92
2021/01/17 06:36:46;;;;;;;7.33;3.40;;;1.30;99.90;;;;;;4965418;28;20346;-93
2021/01/17 06:39:20;;;;;;;4.23;3.20;;;1.30;99.90;;;;;;4965999;28;20569;-91
2021/01/17 06:41:48;;;;;;;3.20;2.93;;;1.40;99.90;;;;;;4965557;28;20242;-93
2021/01/17 06:44:14;;;;;;;16.80;5.27;;;1.40;99.90;;;;;;4965207;28;20675;-92
2021/01/17 06:46:43;;;;;;;6.47;3.67;;;1.40;99.90;;;;;;4951221;28;20224;-92
2021/01/17 06:49:36;;;;;;;6.67;4.40;;;1.30;99.90;;;;;;4959953;28;20233;-93
2021/01/17 06:52:05;;;;;;;5.50;3.93;;;1.40;99.90;;;;;;4942109;28;20686;-92
2021/01/17 06:54:36;;;;;;;8.93;4.43;;;1.30;99.90;;;;;;4943815;28;20233;-93
2021/01/17 06:57:03;;;;;;;17.53;5.73;;;1.30;99.90;;;;;;4942754;28;20251;-91
2021/01/17 06:59:42;;;;;;;10.43;5.30;;;1.30;99.90;;;;;;4942805;29;20264;-92
2021/01/17 07:02:13;;;;;;;4.23;3.17;;;1.40;99.90;;;;;;4943181;28;20344;-93
2021/01/17 07:05:00;;;;;;;7.43;3.70;;;1.30;99.90;;;;;;4944168;29;20651;-93
2021/01/17 07:07:48;;;;;;;10.53;4.50;;;1.30;99.90;;;;;;4958499;28;20235;-93
2021/01/17 07:10:21;;;;;;;6.53;5.60;;;1.40;99.90;;;;;;4941533;28;20541;-92
2021/01/17 07:13:04;;;;;;;7.67;4.60;;;1.40;99.90;;;;;;4940522;28;20276;-92
2021/01/17 07:15:37;;;;;;;4.20;3.53;;;1.40;99.90;;;;;;4943973;28;20224;-91
2021/01/17 07:18:10;;;;;;;5.07;4.10;;;1.40;99.90;;;;;;4942284;28;20221;-92
2021/01/17 07:20:46;;;;;;;7.27;4.13;;;1.40;99.90;;;;;;4943990;28;20736;-92
2021/01/17 07:23:18;;;;;;;5.20;3.63;;;1.40;99.90;;;;;;4941555;28;20185;-93
2021/01/17 07:25:45;;;;;;;2.60;2.47;;;1.40;99.90;;;;;;4943736;29;20184;-93
2021/01/17 07:28:21;;;;;;;3.13;2.83;;;1.40;99.90;;;;;;4942795;28;20248;-92
2021/01/17 07:30:59;;;;;;;4.53;4.20;;;1.40;99.90;;;;;;4941848;29;20269;-91
2021/01/17 07:33:40;;;;;;;6.70;4.27;;;1.50;99.90;;;;;;4942068;29;20221;-92
2021/01/17 07:36:08;;;;;;;4.73;3.63;;;1.40;99.90;;;;;;4943420;28;20232;-92
2021/01/17 07:38:38;;;;;;;5.77;3.93;;;1.50;99.90;;;;;;4942800;29;20871;-94
2021/01/17 07:41:06;;;;;;;3.30;3.00;;;1.50;99.90;;;;;;4943859;28;20726;-93
2021/01/17 07:43:42;;;;;;;7.37;5.07;;;1.50;99.90;;;;;;4943756;28;20205;-95
2021/01/17 07:46:11;;;;;;;11.23;6.70;;;1.50;99.90;;;;;;4943062;28;20244;-94
2021/01/17 07:48:38;;;;;;;8.80;4.03;;;1.50;99.90;;;;;;4956471;28;20236;-93
2021/01/17 07:51:08;;;;;;;6.63;5.20;;;1.50;99.90;;;;;;4977755;28;20224;-93
2021/01/17 07:53:36;;;;;;;8.90;7.33;;;1.50;99.90;;;;;;4962962;28;20247;-90
2021/01/17 07:56:11;;;;;;;6.37;5.57;;;1.60;99.90;;;;;;4961221;28;20197;-94
2021/01/17 07:58:49;;;;;;;9.17;8.33;;;1.60;99.90;;;;;;4962019;28;20183;-88
2021/01/17 08:01:40;;;;;;;9.30;5.93;;;1.60;99.90;;;;;;4961955;28;20231;-89
2021/01/17 08:04:05;;;;;;;5.97;5.37;;;1.60;99.90;;;;;;4961808;28;20220;-92
2021/01/17 08:06:34;;;;;;;6.17;5.57;;;1.70;99.90;;;;;;4964131;28;20223;-90
2021/01/17 08:09:01;;;;;;;6.17;5.63;;;1.70;99.90;;;;;;4980996;28;20694;-90
2021/01/17 08:11:45;;;;;;;11.87;10.63;;;1.70;99.90;;;;;;4964324;28;20286;-89
2021/01/17 08:14:21;;;;;;;8.83;6.90;;;1.70;99.90;;;;;;4965370;28;20251;-90
2021/01/17 08:17:11;;;;;;;10.33;9.23;;;1.70;99.90;;;;;;4983408;28;20196;-90
2021/01/17 08:19:46;;;;;;;10.20;9.17;;;1.80;99.90;;;;;;4965838;28;20228;-89
2021/01/17 08:22:18;;;;;;;8.20;4.97;;;1.80;99.90;;;;;;4948447;28;20236;-93
2021/01/17 08:24:51;;;;;;;5.03;4.63;;;1.90;99.90;;;;;;4979885;28;20235;-91
2021/01/17 08:27:39;;;;;;;9.70;3.60;;;1.90;99.90;;;;;;4963801;28;20220;-91
2021/01/17 08:30:07;;;;;;;6.57;5.10;;;2.00;99.90;;;;;;4948481;28;20237;-91
2021/01/17 08:32:37;;;;;;;9.60;6.27;;;2.10;99.90;;;;;;4965484;28;20332;-91
2021/01/17 08:35:18;;;;;;;27.40;7.33;;;2.10;99.90;;;;;;4964400;28;20224;-91
2021/01/17 08:37:49;;;;;;;6.13;5.30;;;2.10;99.90;;;;;;4966480;28;20208;-91
2021/01/17 08:40:39;;;;;;;4.57;3.00;;;2.00;99.90;;;;;;4962661;28;20232;-86
2021/01/17 08:43:13;;;;;;;5.97;5.40;;;2.10;99.90;;;;;;4957460;28;20236;-86
2021/01/17 08:45:41;;;;;;;7.10;4.83;;;2.10;99.90;;;;;;4972821;28;20331;-87
2021/01/17 08:48:28;;;;;;;3.43;3.23;;;2.10;99.90;;;;;;4956022;28;20240;-88
2021/01/17 08:50:56;;;;;;;11.63;4.77;;;2.00;99.90;;;;;;4943070;28;20307;-86
2021/01/17 08:53:32;;;;;;;5.97;3.80;;;2.10;99.90;;;;;;4976541;28;20345;-86
2021/01/17 08:56:10;;;;;;;7.03;3.77;;;2.10;99.90;;;;;;4977746;28;20247;-90
2021/01/17 08:58:39;;;;;;;5.23;4.83;;;2.20;99.90;;;;;;4981042;28;20188;-90
2021/01/17 09:01:07;;;;;;;7.40;5.03;;;2.20;99.90;;;;;;4960582;28;20228;-90
2021/01/17 09:03:42;;;;;;;6.50;5.10;;;2.20;99.90;;;;;;4979245;28;20216;-90
2021/01/17 09:06:11;;;;;;;10.70;6.87;;;2.30;99.90;;;;;;4979063;28;20247;-90
2021/01/17 09:08:39;;;;;;;5.73;4.43;;;2.30;99.90;;;;;;4962922;28;20225;-90
2021/01/17 09:11:29;;;;;;;4.23;3.83;;;2.40;99.90;;;;;;4947537;28;20211;-89
2021/01/17 09:14:18;;;;;;;6.40;4.20;;;2.40;99.90;;;;;;4963676;28;20185;-87
2021/01/17 09:17:06;;;;;;;8.50;3.77;;;2.50;99.90;;;;;;4963275;28;20255;-86
2021/01/17 09:19:34;;;;;;;9.80;4.37;;;2.50;99.90;;;;;;4978099;28;20217;-87
2021/01/17 09:22:02;;;;;;;7.33;4.43;;;2.50;99.90;;;;;;4961799;28;20220;-87
2021/01/17 09:24:30;;;;;;;8.23;4.90;;;2.50;99.90;;;;;;4959820;28;20247;-86
2021/01/17 09:26:58;;;;;;;4.43;4.03;;;2.50;99.90;;;;;;4963467;28;20248;-86
2021/01/17 09:29:35;;;;;;;5.83;4.33;;;2.50;99.90;;;;;;4962014;28;20229;-86
2021/01/17 09:32:16;;;;;;;7.17;3.47;;;2.50;99.90;;;;;;4979528;28;20299;-87
2021/01/17 09:34:44;;;;;;;17.97;5.37;;;2.50;99.90;;;;;;4965404;28;20768;-88
2021/01/17 09:37:12;;;;;;;8.10;4.47;;;2.60;99.90;;;;;;4963664;28;20228;-91
2021/01/17 09:39:46;;;;;;;7.63;5.93;;;2.60;99.90;;;;;;4964567;28;20263;-91
2021/01/17 09:42:14;;;;;;;8.63;5.17;;;2.60;99.90;;;;;;4964494;28;20218;-90
2021/01/17 09:44:42;;;;;;;5.23;3.10;;;2.60;99.90;;;;;;4978801;28;20272;-90
2021/01/17 09:47:22;;;;;;;5.67;4.40;;;2.70;99.90;;;;;;4961986;28;20187;-92
2021/01/17 09:49:49;;;;;;;10.77;3.77;;;2.90;99.90;;;;;;4964452;28;20208;-91
2021/01/17 09:52:23;;;;;;;4.77;3.27;;;3.20;99.90;;;;;;4963456;28;20848;-90
2021/01/17 09:54:50;;;;;;;6.63;4.10;;;3.30;99.90;;;;;;4963322;28;20215;-90
2021/01/17 09:57:21;;;;;;;6.97;5.33;;;3.40;99.90;;;;;;4979213;28;20242;-91
2021/01/17 09:59:49;;;;;;;6.40;4.57;;;3.50;99.90;;;;;;4962111;28;20241;-91
2021/01/17 10:02:23;;;;;;;6.90;4.03;;;3.50;99.90;;;;;;4964091;28;20224;-90
2021/01/17 10:04:50;;;;;;;8.83;4.27;;;3.40;99.90;;;;;;4965571;28;20641;-89
2021/01/17 10:07:20;;;;;;;15.33;6.40;;;3.50;99.90;;;;;;4978823;28;20296;-86
2021/01/17 10:09:47;;;;;;;7.33;3.90;;;3.40;99.90;;;;;;4946181;28;20220;-88
2021/01/17 10:12:13;;;;;;;7.07;5.57;;;3.40;99.90;;;;;;4979068;28;20235;-87
2021/01/17 10:14:40;;;;;;;4.77;4.33;;;3.40;99.90;;;;;;4961612;28;20324;-85
2021/01/17 10:17:06;;;;;;;11.10;5.67;;;3.50;99.90;;;;;;4962339;28;20193;-87
2021/01/17 10:19:34;;;;;;;13.60;5.63;;;3.60;99.90;;;;;;4965083;28;20208;-86
2021/01/17 10:22:01;;;;;;;6.83;5.43;;;3.70;99.90;;;;;;4978388;28;20675;-86
2021/01/17 10:24:29;;;;;;;4.03;3.47;;;3.90;99.90;;;;;;4944563;28;20224;-84
2021/01/17 10:26:58;;;;;;;5.97;5.47;;;4.00;99.90;;;;;;4961123;28;20701;-86
2021/01/17 10:29:27;;;;;;;10.53;7.00;;;4.00;99.90;;;;;;4960753;28;20244;-86
2021/01/17 10:32:07;;;;;;;6.57;5.83;;;4.10;99.90;;;;;;4961477;28;20855;-84
2021/01/17 10:34:47;;;;;;;23.63;6.70;;;4.30;99.90;;;;;;4954947;28;20231;-85
2021/01/17 10:37:15;;;;;;;5.63;4.43;;;4.30;99.90;;;;;;4940707;28;21225;-87
2021/01/17 10:39:41;;;;;;;8.90;5.23;;;4.30;99.90;;;;;;4958659;28;20224;-85
2021/01/17 10:42:29;;;;;;;10.13;5.10;;;4.40;99.90;;;;;;4958353;28;20228;-85
2021/01/17 10:44:59;;;;;;;5.67;3.77;;;4.50;99.90;;;;;;4959273;28;20213;-85
2021/01/17 10:47:35;;;;;;;5.53;5.03;;;4.50;99.90;;;;;;4963673;28;20239;-85
2021/01/17 10:50:09;;;;;;;5.53;4.00;;;4.50;99.90;;;;;;4978273;28;20183;-85
2021/01/17 10:52:39;;;;;;;5.33;3.73;;;4.60;99.90;;;;;;4962873;28;21150;-86
2021/01/17 10:55:06;;;;;;;4.53;4.13;;;4.70;99.90;;;;;;4961870;28;20224;-85
2021/01/17 10:57:36;;;;;;;3.93;3.53;;;4.80;99.90;;;;;;4961140;28;20219;-85
2021/01/17 11:00:07;;;;;;;10.00;5.33;;;4.90;99.90;;;;;;4979025;28;20248;-85
2021/01/17 11:02:33;;;;;;;9.20;4.87;;;5.10;99.90;;;;;;4947046;28;20677;-87
2021/01/17 11:04:58;;;;;;;5.47;3.77;;;5.20;99.90;;;;;;4962500;28;20705;-87
2021/01/17 11:07:28;;;;;;;10.23;4.77;;;5.30;99.90;;;;;;4964367;28;20184;-86
2021/01/17 11:09:58;;;;;;;9.07;5.40;;;5.40;99.90;;;;;;4946408;28;20231;-87
2021/01/17 11:12:34;;;;;;;6.63;3.53;;;5.50;99.90;;;;;;4976848;28;20235;-86
2021/01/17 11:15:15;;;;;;;10.77;5.83;;;5.70;99.90;;;;;;4962729;28;20242;-86
2021/01/17 11:17:42;;;;;;;6.13;3.63;;;5.90;99.90;;;;;;4961618;28;20215;-86
2021/01/17 11:20:09;;;;;;;7.37;3.17;;;6.00;99.90;;;;;;4961688;28;20885;-86
2021/01/17 11:22:35;;;;;;;8.50;3.47;;;6.10;99.90;;;;;;4962048;28;20208;-86
2021/01/17 11:25:01;;;;;;;3.20;2.47;;;6.20;99.90;;;;;;4979783;28;20231;-86
2021/01/17 11:27:36;;;;;;;5.43;2.73;;;6.10;99.90;;;;;;4978988;28;20215;-90
2021/01/17 11:30:06;;;;;;;4.27;0.93;;;6.10;99.90;;;;;;4961600;28;20333;-88
2021/01/17 11:32:35;;;;;;;2.37;1.63;;;6.10;99.90;;;;;;4978227;28;20562;-87
2021/01/17 11:35:01;;;;;;;1.67;0.40;;;6.10;99.90;;;;;;4945472;28;20657;-87
2021/01/17 11:37:35;;;;;;;6.43;0.70;;;6.10;99.90;;;;;;4947130;28;20200;-88
2021/01/17 11:40:09;;;;;;;9.53;3.00;;;6.10;99.90;;;;;;4936410;28;20236;-87
2021/01/17 11:42:35;;;;;;;0.53;0.53;;;6.20;99.90;;;;;;4941141;28;20236;-86
2021/01/17 11:45:13;;;;;;;3.57;2.87;;;6.20;99.90;;;;;;4980365;28;20238;-86
2021/01/17 11:47:42;;;;;;;4.63;2.17;;;6.20;99.90;;;;;;4961674;28;20585;-86
2021/01/17 11:50:20;;;;;;;3.97;2.10;;;6.30;99.90;;;;;;4979518;28;20208;-86
2021/01/17 11:52:57;;;;;;;8.73;1.47;;;6.40;99.90;;;;;;4946350;28;20306;-86
2021/01/17 11:55:23;;;;;;;1.27;0.83;;;6.30;99.90;;;;;;4962788;28;20311;-86
2021/01/17 11:57:49;;;;;;;0.50;0.50;;;6.40;99.90;;;;;;4977342;28;20385;-86
2021/01/17 12:00:16;;;;;;;5.40;0.97;;;6.50;99.90;;;;;;4960072;28;20417;-86
2021/01/17 12:02:42;;;;;;;1.30;0.53;;;6.60;99.90;;;;;;4978214;28;20250;-86
2021/01/17 12:05:15;;;;;;;0.70;0.67;;;6.80;99.90;;;;;;4944260;28;20196;-88
2021/01/17 12:08:08;;;;;;;1.87;0.57;;;7.00;99.90;;;;;;4977216;28;20195;-85
2021/01/17 12:10:34;;;;;;;1.97;1.20;;;7.00;99.90;;;;;;4955270;28;20286;-86
2021/01/17 12:12:59;;;;;;;1.13;0.87;;;7.00;99.90;;;;;;4959691;28;20227;-85
2021/01/17 12:15:25;;;;;;;7.13;1.03;;;7.10;99.90;;;;;;4946307;28;20598;-85
2021/01/17 12:17:57;;;;;;;3.67;0.83;;;7.10;99.90;;;;;;4960629;28;20620;-86
2021/01/17 12:20:22;;;;;;;1.70;1.63;;;7.10;99.90;;;;;;4978429;28;20726;-85
2021/01/17 12:22:48;;;;;;;4.60;0.60;;;7.20;99.90;;;;;;4961027;28;20199;-85
2021/01/17 12:25:14;;;;;;;1.60;0.87;;;7.10;99.90;;;;;;4960245;28;20233;-88
2021/01/17 12:27:42;;;;;;;7.50;0.60;;;7.20;99.90;;;;;;4963107;28;20200;-86
2021/01/17 12:30:08;;;;;;;1.63;0.60;;;7.20;99.90;;;;;;4981140;28;20204;-86
2021/01/17 12:32:34;;;;;;;13.03;1.30;;;7.20;99.90;;;;;;4931883;28;20230;-86
2021/01/17 12:34:59;;;;;;;6.13;1.93;;;7.30;99.90;;;;;;4958048;28;20247;-86
2021/01/17 12:37:25;;;;;;;5.27;1.43;;;7.50;99.90;;;;;;4961885;28;20249;-85
2021/01/17 12:39:51;;;;;;;0.20;0.20;;;7.60;99.90;;;;;;4927715;28;20312;-87
2021/01/17 12:42:17;;;;;;;0.73;0.73;;;7.70;99.90;;;;;;4943538;28;20236;-86
2021/01/17 12:44:42;;;;;;;0.37;0.37;;;7.70;99.90;;;;;;4941083;28;20228;-86
2021/01/17 12:47:08;;;;;;;0.67;0.57;;;7.80;99.90;;;;;;4959032;28;20188;-86
2021/01/17 12:49:34;;;;;;;6.17;1.20;;;7.90;99.90;;;;;;4946782;28;21249;-88
2021/01/17 12:51:59;;;;;;;0.20;0.20;;;7.90;99.90;;;;;;4980254;28;20278;-86
2021/01/17 12:54:25;;;;;;;15.43;0.93;;;7.80;99.90;;;;;;4945208;28;20216;-86
2021/01/17 12:56:54;;;;;;;0.40;0.40;;;7.80;99.90;;;;;;4917400;28;20302;-87
2021/01/17 12:59:20;;;;;;;0.20;0.20;;;7.90;99.90;;;;;;4957548;28;20228;-85
2021/01/17 13:01:46;;;;;;;0.40;0.27;;;8.00;99.90;;;;;;4945603;28;20215;-86
2021/01/17 13:04:12;;;;;;;5.40;2.37;;;7.90;99.90;;;;;;4959620;28;21077;-86
2021/01/17 13:06:37;;;;;;;2.80;0.93;;;7.90;99.90;;;;;;4949263;28;21021;-86
2021/01/17 13:09:03;;;;;;;0.20;0.20;;;7.80;99.90;;;;;;4945062;28;20227;-91
2021/01/17 13:11:29;;;;;;;1.43;0.50;;;7.70;99.90;;;;;;4958216;28;20200;-90